TAF and METAR

Could not understand the following METAR

YPPD 251300Z AUTO 28017KT 9999 // NCD 30/22 Q1003 RF00.0/000.0

TAF for Port Hedland International Airport

TAF YPPD 251130Z 2512/2612 28016KT CAVOK FM251900 25010KT CAVOK FM252200 20012KT CAVOK FM260400 30020KT CAVOK
Report created 25. jan 12:30

between 25. jan 13:00 - 26. jan 13:00

wind 16 knots from W (280°) Clear sky

From 25. jan 20:00

wind 10 knots from WSW (250°) Clear sky

From 25. jan 23:00

wind 12 knots from SSW (200°) Clear sky

From 26. jan 05:00

wind 20 knots from WNW (300°) Clear sky
Port Hedland International Airport in Australia at 6m

Latest 5 airports